Time;durP1;ratioP1;P1;durP2;ratioP2;P2;SDS_P1;SDS_P2;PMS_P1;PMS_P2;Temp;Humidity;BMP_temperature;BMP_pressure;BME280_temperature;BME280_humidity;BME280_pressure;Samples;Min_cycle;Max_cycle;Signal;HPM_P1;HPM_P2
2023/10/27 00:04:58;;;;;;;1.60;1.10;;;11.70;98.20;;;;;;5005594;28;20512;-85
2023/10/27 00:07:28;;;;;;;1.57;1.10;;;11.70;98.20;;;;;;4992967;28;20484;-85
2023/10/27 00:09:55;;;;;;;1.70;1.07;;;11.70;98.20;;;;;;5008663;28;20928;-83
2023/10/27 00:12:30;;;;;;;1.60;1.10;;;11.70;98.20;;;;;;4996342;28;21041;-84
2023/10/27 00:15:00;;;;;;;1.60;1.10;;;11.60;98.20;;;;;;5008121;28;20478;-83
2023/10/27 00:17:28;;;;;;;1.60;1.20;;;11.60;98.20;;;;;;5010545;28;20481;-85
2023/10/27 00:19:55;;;;;;;1.60;1.10;;;11.60;98.20;;;;;;5009631;28;20464;-83
2023/10/27 00:22:27;;;;;;;1.53;1.00;;;11.60;98.20;;;;;;5001429;28;20499;-84
2023/10/27 00:24:54;;;;;;;1.60;1.10;;;11.50;98.20;;;;;;5008184;28;20897;-85
2023/10/27 00:27:21;;;;;;;1.53;1.10;;;11.50;98.20;;;;;;5009538;28;20546;-84
2023/10/27 00:29:48;;;;;;;1.60;1.10;;;11.50;98.20;;;;;;5011295;28;20479;-84
2023/10/27 00:32:18;;;;;;;1.53;1.10;;;11.50;98.20;;;;;;5000411;28;20479;-83
2023/10/27 00:34:47;;;;;;;1.53;1.00;;;11.50;98.20;;;;;;5010013;28;20479;-85
2023/10/27 00:37:24;;;;;;;2.77;2.23;;;11.50;98.20;;;;;;5000148;28;20577;-85
2023/10/27 00:40:18;;;;;;;;;;;;;;;;;;;;;
2023/10/27 00:42:46;;;;;;;1.60;1.10;;;11.50;98.20;;;;;;5001905;28;20575;-84
2023/10/27 00:45:30;;;;;;;1.60;1.10;;;11.50;98.20;;;;;;5009067;28;20480;-85
2023/10/27 00:47:58;;;;;;;1.60;1.03;;;11.50;98.20;;;;;;5003048;28;20482;-84
2023/10/27 00:50:27;;;;;;;1.57;1.00;;;11.50;98.20;;;;;;5007491;28;20552;-85
2023/10/27 00:52:57;;;;;;;1.60;1.30;;;11.50;98.20;;;;;;5001524;28;20487;-85
2023/10/27 00:55:24;;;;;;;1.60;1.10;;;11.50;98.20;;;;;;5005107;28;20468;-85
2023/10/27 00:57:53;;;;;;;1.60;1.10;;;11.50;98.20;;;;;;5001018;28;20488;-85
2023/10/27 01:00:20;;;;;;;1.60;1.10;;;11.40;98.20;;;;;;5006745;28;20475;-85
2023/10/27 01:02:47;;;;;;;1.60;1.10;;;11.40;98.20;;;;;;4997863;28;21121;-85
2023/10/27 01:05:33;;;;;;;1.60;1.10;;;11.40;98.20;;;;;;5003758;28;20480;-84
2023/10/27 01:08:01;;;;;;;1.60;1.00;;;11.40;98.20;;;;;;5000926;28;21159;-84
2023/10/27 01:10:30;;;;;;;1.60;1.30;;;11.40;98.20;;;;;;5007314;28;20464;-84
2023/10/27 01:13:14;;;;;;;1.60;1.10;;;11.30;98.20;;;;;;5004989;28;20472;-85
2023/10/27 01:15:47;;;;;;;1.70;1.30;;;11.30;98.20;;;;;;5006083;28;21006;-84
2023/10/27 01:18:16;;;;;;;1.60;1.10;;;11.30;98.20;;;;;;4996158;28;20542;-83
2023/10/27 01:20:54;;;;;;;1.60;1.10;;;11.30;98.20;;;;;;5007297;28;20555;-85
2023/10/27 01:23:39;;;;;;;1.57;1.10;;;11.30;98.20;;;;;;4996453;28;20472;-85
2023/10/27 01:26:06;;;;;;;1.60;1.10;;;11.30;98.20;;;;;;4997418;28;20486;-84
2023/10/27 01:28:33;;;;;;;1.60;1.10;;;11.30;98.20;;;;;;5009731;28;20469;-85
2023/10/27 01:31:10;;;;;;;1.60;1.20;;;11.30;98.20;;;;;;4997937;28;20532;-85
2023/10/27 01:33:37;;;;;;;1.60;1.10;;;11.30;98.20;;;;;;5008029;28;20460;-85
2023/10/27 01:36:07;;;;;;;1.60;1.20;;;11.30;98.20;;;;;;4996119;28;20482;-84
2023/10/27 01:38:40;;;;;;;1.60;1.10;;;11.30;98.20;;;;;;5001040;28;20492;-85
2023/10/27 01:41:07;;;;;;;1.60;1.10;;;11.30;98.20;;;;;;4997750;28;21018;-84
2023/10/27 01:43:34;;;;;;;1.60;1.17;;;11.30;98.20;;;;;;5009124;28;20492;-85
2023/10/27 01:46:01;;;;;;;1.60;1.20;;;11.30;98.20;;;;;;4997105;28;20519;-85
2023/10/27 01:48:55;;;;;;;1.60;1.03;;;11.30;98.20;;;;;;5015259;28;20914;-85
2023/10/27 01:51:31;;;;;;;1.60;1.10;;;11.30;98.20;;;;;;4969349;28;20467;-85
2023/10/27 01:53:59;;;;;;;1.70;1.30;;;11.30;98.20;;;;;;4999801;28;20483;-84
2023/10/27 01:56:26;;;;;;;1.57;1.10;;;11.30;98.20;;;;;;4993908;28;20558;-84
2023/10/27 01:58:56;;;;;;;1.60;1.10;;;11.30;98.20;;;;;;5004317;28;20460;-85
2023/10/27 02:01:23;;;;;;;1.60;1.10;;;11.30;98.20;;;;;;4999225;28;20538;-84
2023/10/27 02:03:50;;;;;;;1.60;1.20;;;11.20;98.20;;;;;;5006709;28;20861;-84
2023/10/27 02:06:28;;;;;;;1.57;1.07;;;11.20;98.20;;;;;;4998863;28;21161;-84
2023/10/27 02:08:55;;;;;;;1.60;1.10;;;11.20;98.20;;;;;;5007172;28;20491;-84
2023/10/27 02:11:29;;;;;;;1.60;1.10;;;11.20;98.20;;;;;;4997446;28;20562;-85
2023/10/27 02:13:56;;;;;;;1.60;1.10;;;11.20;98.20;;;;;;5007819;28;20564;-84
2023/10/27 02:16:28;;;;;;;1.57;1.00;;;11.30;98.20;;;;;;4996185;28;20495;-85
2023/10/27 02:18:55;;;;;;;1.60;1.00;;;11.30;98.20;;;;;;5006769;28;20467;-83
2023/10/27 02:21:27;;;;;;;1.60;1.10;;;11.30;98.20;;;;;;4996834;28;21045;-85
2023/10/27 02:23:54;;;;;;;1.60;1.10;;;11.30;98.20;;;;;;5004732;28;20492;-83
2023/10/27 02:26:20;;;;;;;1.60;1.10;;;11.30;98.20;;;;;;5000742;28;20562;-84
2023/10/27 02:28:56;;;;;;;1.60;1.10;;;11.40;98.20;;;;;;5016189;28;20500;-83
2023/10/27 02:31:23;;;;;;;1.60;1.10;;;11.40;98.20;;;;;;5000902;28;20481;-82
2023/10/27 02:33:50;;;;;;;1.60;1.10;;;11.40;98.20;;;;;;5016100;28;20887;-82
2023/10/27 02:36:19;;;;;;;1.60;1.10;;;11.40;98.20;;;;;;5001847;28;20478;-84
2023/10/27 02:38:46;;;;;;;1.60;1.20;;;11.40;98.20;;;;;;5019737;28;21241;-82
2023/10/27 02:41:13;;;;;;;1.60;1.10;;;11.40;98.20;;;;;;5001717;28;21889;-83
2023/10/27 02:43:40;;;;;;;2.27;2.07;;;11.40;98.20;;;;;;5021220;28;20491;-82
2023/10/27 02:46:12;;;;;;;1.53;1.00;;;11.40;98.20;;;;;;4998938;28;20462;-82
2023/10/27 02:48:40;;;;;;;1.77;1.60;;;11.40;98.20;;;;;;5023319;28;20456;-84
2023/10/27 02:51:07;;;;;;;1.60;1.13;;;11.40;98.20;;;;;;5003786;28;20470;-84
2023/10/27 02:53:34;;;;;;;1.53;1.10;;;11.40;98.20;;;;;;5027152;28;20551;-82
2023/10/27 02:56:05;;;;;;;1.60;1.10;;;11.40;98.20;;;;;;5005648;28;20521;-84
2023/10/27 02:58:32;;;;;;;1.57;1.10;;;11.40;98.20;;;;;;5031526;28;20997;-82
2023/10/27 03:00:59;;;;;;;1.57;1.00;;;11.40;98.20;;;;;;5018389;28;20460;-84
2023/10/27 03:03:29;;;;;;;1.60;1.10;;;11.40;98.20;;;;;;5031844;28;20475;-83
2023/10/27 03:05:58;;;;;;;3.27;3.00;;;11.40;98.20;;;;;;4999596;28;20513;-83
2023/10/27 03:08:30;;;;;;;1.60;1.20;;;11.40;98.20;;;;;;5021966;28;20456;-85
2023/10/27 03:10:57;;;;;;;1.80;1.60;;;11.30;98.20;;;;;;4998739;28;20546;-85
2023/10/27 03:13:24;;;;;;;1.60;1.10;;;11.30;98.20;;;;;;5024703;28;20460;-85
2023/10/27 03:15:54;;;;;;;1.60;1.10;;;11.30;98.20;;;;;;5000165;28;21205;-84
2023/10/27 03:18:33;;;;;;;1.60;1.20;;;11.30;98.20;;;;;;5024324;28;20460;-85
2023/10/27 03:21:05;;;;;;;1.60;1.10;;;11.30;98.20;;;;;;4998839;28;20881;-85
2023/10/27 03:23:32;;;;;;;1.60;1.10;;;11.30;98.20;;;;;;5018845;28;20468;-85
2023/10/27 03:25:59;;;;;;;1.60;1.10;;;11.30;98.20;;;;;;4999426;28;20491;-85
2023/10/27 03:28:26;;;;;;;1.60;1.10;;;11.30;98.20;;;;;;5018171;28;20554;-85
2023/10/27 03:30:53;;;;;;;1.57;1.10;;;11.30;98.20;;;;;;4995920;28;20463;-84
2023/10/27 03:33:20;;;;;;;1.60;1.10;;;11.30;98.20;;;;;;5015315;28;20540;-84
2023/10/27 03:35:48;;;;;;;1.60;1.10;;;11.30;98.20;;;;;;5011239;28;20460;-84
2023/10/27 03:38:16;;;;;;;1.57;1.10;;;11.30;98.20;;;;;;4998556;28;20507;-84
2023/10/27 03:40:44;;;;;;;1.60;1.10;;;11.30;98.20;;;;;;5009493;28;20463;-84
2023/10/27 03:43:14;;;;;;;1.60;1.10;;;11.30;98.20;;;;;;5023079;28;20488;-83
2023/10/27 03:45:59;;;;;;;1.60;1.00;;;11.30;98.20;;;;;;5013422;28;20487;-81
2023/10/27 03:48:26;;;;;;;1.60;1.10;;;11.30;98.20;;;;;;4999865;28;20476;-81
2023/10/27 03:50:55;;;;;;;1.60;1.10;;;11.40;98.20;;;;;;5000007;28;20461;-81
2023/10/27 03:53:25;;;;;;;1.60;1.10;;;11.40;98.20;;;;;;5030378;28;20940;-81
2023/10/27 03:55:52;;;;;;;1.57;1.10;;;11.30;98.20;;;;;;5001343;28;20584;-81
2023/10/27 03:58:19;;;;;;;1.60;1.10;;;11.30;98.20;;;;;;5020711;28;20514;-80
2023/10/27 04:00:46;;;;;;;1.60;1.20;;;11.30;98.20;;;;;;5007318;28;20462;-82
2023/10/27 04:03:49;;;;;;;1.60;1.10;;;11.30;98.20;;;;;;4992993;28;20515;-82
2023/10/27 04:06:18;;;;;;;1.60;1.10;;;11.30;98.20;;;;;;4991277;28;20478;-81
2023/10/27 04:08:44;;;;;;;1.60;1.10;;;11.30;98.20;;;;;;5014857;28;20551;-82
2023/10/27 04:11:22;;;;;;;1.57;1.07;;;11.30;98.20;;;;;;4998983;28;20534;-82
2023/10/27 04:13:49;;;;;;;1.53;1.07;;;11.30;98.20;;;;;;5017541;28;20476;-82
2023/10/27 04:16:16;;;;;;;1.60;1.10;;;11.30;98.20;;;;;;4999325;28;20594;-81
2023/10/27 04:18:44;;;;;;;1.60;1.20;;;11.30;98.20;;;;;;5020525;28;20978;-82
2023/10/27 04:21:11;;;;;;;1.57;1.10;;;11.30;98.20;;;;;;5000509;28;20518;-82
2023/10/27 04:23:43;;;;;;;1.60;1.13;;;11.30;98.20;;;;;;5015398;28;20444;-82
2023/10/27 04:26:11;;;;;;;1.60;1.10;;;11.30;98.20;;;;;;4999897;28;20502;-82
2023/10/27 04:28:41;;;;;;;1.60;1.10;;;11.30;98.20;;;;;;5017556;28;20459;-81
2023/10/27 04:31:08;;;;;;;1.93;1.73;;;11.30;98.20;;;;;;4999861;28;20484;-81
2023/10/27 04:33:38;;;;;;;1.60;1.00;;;11.30;98.20;;;;;;5019226;28;20461;-82
2023/10/27 04:36:09;;;;;;;1.60;1.10;;;11.30;98.20;;;;;;4994247;28;21004;-82
2023/10/27 04:39:05;;;;;;;1.57;1.10;;;11.30;98.20;;;;;;5016693;28;20467;-83
2023/10/27 04:41:32;;;;;;;1.60;1.10;;;11.30;98.20;;;;;;5006191;28;20469;-81
2023/10/27 04:44:10;;;;;;;1.60;1.10;;;11.30;98.20;;;;;;5021838;28;20491;-82
2023/10/27 04:46:37;;;;;;;1.60;1.00;;;11.30;98.20;;;;;;4999700;28;21093;-82
2023/10/27 04:56:12;;;;;;;1.60;1.10;;;11.30;98.20;;;;;;5612384;23;20496;-81
2023/10/27 04:58:53;;;;;;;1.60;1.10;;;11.30;98.20;;;;;;4992560;28;20982;-83
2023/10/27 05:01:25;;;;;;;1.57;1.10;;;11.30;98.20;;;;;;4991943;28;20860;-83
2023/10/27 05:03:52;;;;;;;1.70;1.50;;;11.30;98.20;;;;;;4995383;28;20575;-82
2023/10/27 05:06:18;;;;;;;1.60;1.00;;;11.20;98.20;;;;;;4992263;28;20604;-82
2023/10/27 05:08:45;;;;;;;1.60;1.10;;;11.20;98.20;;;;;;4990855;28;20933;-82
2023/10/27 05:11:14;;;;;;;1.60;1.10;;;11.20;98.20;;;;;;4987818;28;20473;-82
2023/10/27 05:13:41;;;;;;;1.60;1.03;;;11.20;98.20;;;;;;4993702;28;20542;-82
2023/10/27 05:16:08;;;;;;;1.60;1.10;;;11.20;98.20;;;;;;4991574;28;20479;-83
2023/10/27 05:18:36;;;;;;;1.60;1.10;;;11.20;98.20;;;;;;4996462;28;20461;-81
2023/10/27 05:21:04;;;;;;;1.60;1.03;;;11.20;98.20;;;;;;4993043;28;20459;-82
2023/10/27 05:23:34;;;;;;;1.60;1.10;;;11.20;98.20;;;;;;4994004;28;20522;-81
2023/10/27 05:26:14;;;;;;;1.60;1.10;;;11.20;98.20;;;;;;4999147;28;20495;-81
2023/10/27 05:28:41;;;;;;;1.60;1.10;;;11.20;98.20;;;;;;4992540;28;20841;-81
2023/10/27 05:31:08;;;;;;;1.70;1.27;;;11.20;98.20;;;;;;4992208;28;20944;-81
2023/10/27 05:33:35;;;;;;;1.60;1.10;;;11.20;98.20;;;;;;4991305;28;20521;-81
2023/10/27 05:36:03;;;;;;;1.60;1.03;;;11.20;98.20;;;;;;4990714;28;20540;-82
2023/10/27 05:38:30;;;;;;;1.57;1.00;;;11.20;98.20;;;;;;5002807;28;20500;-82
2023/10/27 05:40:57;;;;;;;1.60;1.10;;;11.20;98.20;;;;;;4995449;28;20900;-82
2023/10/27 05:43:26;;;;;;;1.60;1.10;;;11.20;98.20;;;;;;4989106;28;20456;-82
2023/10/27 05:49:20;;;;;;;1.60;1.10;;;11.20;98.20;;;;;;4985002;28;20488;-83
2023/10/27 05:51:47;;;;;;;1.60;1.10;;;11.20;98.20;;;;;;4985840;28;20488;-82
2023/10/27 05:54:14;;;;;;;1.60;1.10;;;11.20;98.20;;;;;;4994546;28;20499;-83
2023/10/27 05:56:41;;;;;;;1.60;1.10;;;11.20;98.20;;;;;;4993952;28;20507;-83
2023/10/27 05:59:09;;;;;;;1.57;1.10;;;11.20;98.20;;;;;;5006440;28;20912;-80
2023/10/27 06:01:36;;;;;;;1.60;1.10;;;11.20;98.20;;;;;;4989612;28;20477;-82
2023/10/27 06:04:04;;;;;;;1.60;1.10;;;11.20;98.20;;;;;;4996173;28;20574;-81
2023/10/27 06:06:31;;;;;;;1.60;1.10;;;11.20;98.20;;;;;;4991332;28;20492;-82
2023/10/27 06:09:03;;;;;;;1.57;1.10;;;11.20;98.20;;;;;;5007977;28;20884;-81
2023/10/27 06:11:30;;;;;;;1.57;1.00;;;11.20;98.20;;;;;;4990068;28;20521;-82
2023/10/27 06:14:02;;;;;;;1.60;1.10;;;11.20;98.20;;;;;;4996154;28;20475;-82
2023/10/27 06:16:31;;;;;;;1.57;1.00;;;11.20;98.20;;;;;;4989925;28;20495;-82
2023/10/27 06:18:58;;;;;;;1.60;1.30;;;11.20;98.20;;;;;;4996029;28;20531;-81
2023/10/27 06:24:27;;;;;;;1.57;1.10;;;11.20;98.20;;;;;;4983782;28;20487;-81
2023/10/27 06:26:54;;;;;;;1.60;1.10;;;11.20;98.20;;;;;;4985966;28;20487;-82
2023/10/27 06:29:26;;;;;;;1.60;1.10;;;11.30;98.20;;;;;;4993933;28;20841;-81
2023/10/27 06:31:55;;;;;;;1.60;1.10;;;11.30;98.20;;;;;;4986209;28;20477;-80
2023/10/27 06:34:22;;;;;;;1.60;1.10;;;11.30;98.20;;;;;;5000030;28;20755;-80
2023/10/27 06:36:49;;;;;;;1.60;1.10;;;11.30;98.20;;;;;;4989085;28;20483;-81
2023/10/27 06:39:16;;;;;;;1.60;1.10;;;11.30;98.20;;;;;;4999203;28;20491;-81
2023/10/27 06:41:43;;;;;;;1.60;1.07;;;11.30;98.20;;;;;;4990707;28;20481;-82
2023/10/27 06:44:17;;;;;;;2.37;2.17;;;11.30;98.20;;;;;;5003475;28;20581;-81
2023/10/27 06:46:47;;;;;;;1.60;1.10;;;11.30;98.20;;;;;;4990341;28;21026;-82
2023/10/27 06:49:16;;;;;;;1.60;1.10;;;11.30;98.20;;;;;;4996827;28;20551;-80
2023/10/27 06:51:43;;;;;;;1.60;1.00;;;11.30;98.20;;;;;;4989958;28;20559;-81
2023/10/27 06:54:13;;;;;;;1.60;1.00;;;11.30;98.20;;;;;;4999778;28;20791;-81
2023/10/27 06:56:40;;;;;;;1.60;1.17;;;11.30;98.20;;;;;;4995739;28;20546;-82
2023/10/27 06:59:10;;;;;;;1.60;1.10;;;11.30;98.20;;;;;;5006761;28;20468;-82
2023/10/27 07:01:44;;;;;;;1.60;1.00;;;11.30;98.20;;;;;;4996698;28;20480;-82
2023/10/27 07:04:13;;;;;;;1.60;1.03;;;11.30;98.20;;;;;;5009729;28;20472;-82
2023/10/27 07:06:44;;;;;;;1.53;1.00;;;11.30;98.20;;;;;;4992124;28;20587;-82
2023/10/27 07:09:11;;;;;;;1.60;1.10;;;11.30;98.20;;;;;;4996893;28;20495;-82
2023/10/27 07:11:39;;;;;;;1.60;1.10;;;11.30;98.20;;;;;;4988572;28;20487;-82
2023/10/27 07:14:06;;;;;;;1.57;1.00;;;11.40;98.20;;;;;;5000209;28;20491;-82
2023/10/27 07:16:33;;;;;;;1.60;1.00;;;11.40;98.20;;;;;;4991106;28;20480;-82
2023/10/27 07:19:01;;;;;;;1.60;1.07;;;11.40;98.20;;;;;;4995369;28;20530;-82
2023/10/27 07:22:38;;;;;;;2.57;2.37;;;11.40;98.20;;;;;;5007243;28;20470;-82
2023/10/27 07:25:13;;;;;;;1.60;1.07;;;11.40;98.20;;;;;;4947730;28;20478;-82
2023/10/27 07:27:45;;;;;;;1.60;1.10;;;11.40;98.20;;;;;;4938995;28;20477;-83
2023/10/27 07:30:17;;;;;;;1.60;1.10;;;11.40;98.20;;;;;;4997933;28;20466;-83
2023/10/27 07:32:45;;;;;;;1.57;1.03;;;11.40;98.20;;;;;;4997344;28;20488;-83
2023/10/27 07:35:12;;;;;;;1.60;1.00;;;11.40;98.20;;;;;;5010206;28;20490;-82
2023/10/27 07:37:48;;;;;;;1.60;1.10;;;11.50;98.20;;;;;;4996158;28;20858;-83
2023/10/27 07:40:41;;;;;;;1.60;1.07;;;11.50;98.20;;;;;;5008812;28;20447;-83
2023/10/27 07:43:11;;;;;;;1.53;1.00;;;11.50;98.20;;;;;;4979295;28;20567;-83
2023/10/27 07:45:38;;;;;;;1.60;1.10;;;11.50;98.20;;;;;;5005053;28;20502;-83
2023/10/27 07:48:06;;;;;;;1.60;1.10;;;11.60;98.20;;;;;;4983563;28;20893;-84
2023/10/27 07:50:34;;;;;;;1.60;1.20;;;11.60;98.20;;;;;;5008516;28;20472;-82
2023/10/27 07:53:02;;;;;;;1.60;1.20;;;11.60;98.20;;;;;;4997977;28;20632;-83
2023/10/27 07:55:29;;;;;;;1.60;1.10;;;11.60;98.20;;;;;;5005966;28;20873;-83
2023/10/27 07:57:58;;;;;;;1.60;1.10;;;11.60;98.20;;;;;;4994897;28;20493;-83
2023/10/27 08:00:26;;;;;;;1.57;1.00;;;11.60;98.20;;;;;;5002483;28;20527;-82
2023/10/27 08:03:02;;;;;;;1.60;1.10;;;11.60;98.20;;;;;;4995024;28;20543;-83
2023/10/27 08:05:30;;;;;;;1.60;1.10;;;11.70;98.20;;;;;;5005106;28;20498;-83
2023/10/27 08:07:58;;;;;;;1.60;1.20;;;11.70;98.20;;;;;;4976582;28;20563;-83
2023/10/27 08:10:30;;;;;;;1.60;1.10;;;11.70;98.20;;;;;;5007919;28;20548;-83
2023/10/27 08:19:36;;;;;;;1.60;1.10;;;11.80;98.20;;;;;;4927374;29;20207;-83
2023/10/27 08:25:15;;;;;;;1.60;1.10;;;11.90;98.20;;;;;;4910236;29;20538;-82
2023/10/27 08:27:42;;;;;;;1.60;1.10;;;11.90;98.20;;;;;;4954582;28;20471;-82
2023/10/27 08:30:17;;;;;;;1.60;1.10;;;11.90;98.20;;;;;;5003027;28;20523;-82
2023/10/27 08:32:45;;;;;;;1.60;1.00;;;11.90;98.20;;;;;;5007709;28;20505;-83
2023/10/27 08:35:13;;;;;;;1.57;1.00;;;12.00;98.20;;;;;;5007007;28;20591;-82
2023/10/27 08:37:41;;;;;;;1.57;1.00;;;12.00;98.20;;;;;;4985528;28;20675;-83
2023/10/27 08:40:12;;;;;;;1.57;1.00;;;12.00;98.20;;;;;;5004631;28;20852;-83
2023/10/27 08:42:46;;;;;;;1.60;1.07;;;12.00;98.20;;;;;;4988499;28;20479;-82
2023/10/27 08:45:22;;;;;;;1.60;1.07;;;12.00;98.20;;;;;;5006664;28;20495;-82
2023/10/27 08:47:49;;;;;;;1.60;1.10;;;12.00;98.20;;;;;;5001064;28;21089;-81
2023/10/27 08:50:16;;;;;;;1.57;1.00;;;12.00;98.20;;;;;;5007822;28;20467;-82
2023/10/27 08:52:45;;;;;;;1.53;1.00;;;12.00;98.20;;;;;;5006629;28;20515;-82
2023/10/27 08:58:20;;;;;;;1.60;1.13;;;12.00;98.20;;;;;;4995025;28;20467;-82
2023/10/27 09:10:46;;;;;;;1.60;1.00;;;12.00;98.20;;;;;;4846472;29;20477;-83
2023/10/27 09:16:05;;;;;;;1.60;1.10;;;12.10;98.20;;;;;;5791215;23;20495;-82
2023/10/27 09:18:44;;;;;;;1.57;1.07;;;12.10;98.20;;;;;;5022295;28;20547;-82
2023/10/27 10:29:25;;;;;;;1.60;1.00;;;13.30;98.20;;;;;;5026410;28;20597;-85
2023/10/27 10:41:36;;;;;;;1.60;1.00;;;13.70;98.20;;;;;;5174205;23;20479;-85
2023/10/27 10:55:22;;;;;;;1.60;1.00;;;13.90;98.20;;;;;;5001555;23;20505;-82
2023/10/27 10:57:51;;;;;;;1.60;1.00;;;13.80;98.20;;;;;;4960189;28;21118;-81
2023/10/27 11:00:19;;;;;;;1.60;1.00;;;13.70;98.20;;;;;;4969432;28;20885;-82
2023/10/27 11:02:48;;;;;;;1.60;1.00;;;13.70;98.20;;;;;;4967766;28;20481;-82
2023/10/27 11:05:27;;;;;;;1.60;1.00;;;13.70;98.20;;;;;;4969263;28;20604;-82
2023/10/27 11:07:54;;;;;;;1.60;1.10;;;13.80;98.20;;;;;;4980042;28;20493;-83
2023/10/27 11:10:23;;;;;;;1.60;1.00;;;13.80;98.20;;;;;;4974050;28;20501;-82
2023/10/27 11:12:52;;;;;;;1.60;1.00;;;13.90;98.20;;;;;;4980098;28;20622;-80
2023/10/27 11:15:45;;;;;;;1.70;1.43;;;13.90;98.20;;;;;;4976689;28;20528;-81
2023/10/27 11:18:14;;;;;;;1.60;1.00;;;13.90;98.20;;;;;;4994912;28;20940;-82
2023/10/27 11:20:43;;;;;;;1.60;1.00;;;13.80;98.20;;;;;;5008276;28;20481;-81
2023/10/27 11:23:11;;;;;;;1.60;1.00;;;13.80;98.20;;;;;;5014172;28;20986;-80
2023/10/27 11:25:40;;;;;;;1.60;1.00;;;13.80;98.20;;;;;;5009957;28;20507;-81
2023/10/27 11:28:24;;;;;;;1.60;1.00;;;13.90;98.20;;;;;;4987766;28;20784;-80
2023/10/27 11:31:05;;;;;;;1.60;1.00;;;14.00;98.20;;;;;;4985148;28;20465;-80
2023/10/27 11:33:32;;;;;;;1.60;1.00;;;14.00;98.20;;;;;;4994737;28;20465;-81
2023/10/27 11:35:59;;;;;;;1.60;1.10;;;14.10;98.20;;;;;;4986486;28;20513;-80
2023/10/27 11:38:33;;;;;;;1.60;1.00;;;14.20;98.20;;;;;;4997546;28;20966;-81
2023/10/27 11:41:12;;;;;;;1.60;1.10;;;14.40;98.20;;;;;;4981905;28;20473;-80
2023/10/27 11:43:46;;;;;;;1.60;1.00;;;14.50;98.20;;;;;;5004699;28;20706;-80
2023/10/27 11:46:14;;;;;;;1.60;1.00;;;14.60;98.20;;;;;;4984870;28;20480;-80
2023/10/27 11:48:41;;;;;;;1.60;1.00;;;14.70;98.20;;;;;;5007490;28;20464;-81
2023/10/27 11:51:37;;;;;;;1.60;1.00;;;14.70;98.20;;;;;;4983635;28;20782;-80
2023/10/27 11:54:35;;;;;;;1.60;1.00;;;14.90;98.20;;;;;;4998524;28;20572;-81
2023/10/27 12:00:01;;;;;;;1.60;1.00;;;15.00;98.20;;;;;;4996976;28;20467;-81
2023/10/27 12:02:28;;;;;;;1.60;1.00;;;15.00;98.20;;;;;;4990927;28;20467;-81
2023/10/27 12:04:55;;;;;;;1.60;1.00;;;15.10;98.20;;;;;;4992214;28;20489;-81
2023/10/27 12:07:22;;;;;;;1.60;1.00;;;15.10;98.20;;;;;;4992435;28;20480;-81
2023/10/27 12:09:49;;;;;;;1.60;1.00;;;15.10;98.20;;;;;;4993167;28;20461;-81
2023/10/27 12:12:21;;;;;;;1.60;1.00;;;15.10;98.20;;;;;;4993006;28;20888;-81
2023/10/27 12:20:08;;;;;;;1.60;0.90;;;15.00;98.20;;;;;;5026264;23;20488;-83
2023/10/27 12:26:14;;;;;;;1.60;1.03;;;14.80;98.20;;;;;;5024653;23;20569;-84
2023/10/27 12:28:59;;;;;;;1.60;1.00;;;14.60;98.20;;;;;;4977705;28;20501;-83
2023/10/27 12:32:05;;;;;;;1.60;1.00;;;14.40;98.20;;;;;;4963836;28;20466;-83
2023/10/27 13:17:11;;;;;;;1.53;1.00;;;13.90;98.20;;;;;;4957985;28;20523;-84
2023/10/27 13:31:44;;;;;;;1.60;1.00;;;13.70;98.20;;;;;;5058300;23;21140;-83
2023/10/27 13:34:45;;;;;;;1.60;1.10;;;13.70;98.20;;;;;;5131385;23;20506;-84
2023/10/27 13:44:08;;;;;;;1.60;1.10;;;13.60;98.20;;;;;;4939404;28;20489;-84
2023/10/27 13:47:02;;;;;;;1.60;1.10;;;13.50;98.20;;;;;;4963799;28;20478;-84
2023/10/27 13:57:24;;;;;;;1.60;1.00;;;13.30;98.20;;;;;;4868977;29;20481;-84
2023/10/27 14:06:51;;;;;;;1.60;0.90;;;13.10;98.20;;;;;;5073862;23;20583;-84
2023/10/27 14:19:08;;;;;;;1.60;1.00;;;13.00;98.20;;;;;;4955879;28;20771;-85
2023/10/27 14:27:22;;;;;;;1.60;1.00;;;13.10;98.20;;;;;;5020726;28;20861;-83
2023/10/27 14:33:59;;;;;;;1.57;0.90;;;13.20;98.20;;;;;;4922727;28;21097;-85
2023/10/27 14:36:51;;;;;;;;;;;;;;;;;;;;;
2023/10/27 15:58:00;;;;;;;1.60;1.00;;;13.00;98.20;;;;;;4881558;29;21369;-85
2023/10/27 16:01:23;;;;;;;1.60;1.00;;;13.00;98.20;;;;;;4950993;29;20496;-84
2023/10/27 16:04:37;;;;;;;;;;;;;;;;;;;;;
2023/10/27 16:12:00;;;;;;;;;;;;;;;;;;;;;
2023/10/27 16:43:22;;;;;;;1.60;1.20;;;12.30;98.20;;;;;;5007297;28;20484;-83
2023/10/27 16:45:53;;;;;;;1.60;1.10;;;12.20;98.20;;;;;;4995729;28;20567;-83
2023/10/27 16:48:53;;;;;;;1.60;1.10;;;12.20;98.20;;;;;;5018068;28;21064;-83
2023/10/27 16:58:00;;;;;;;1.60;1.10;;;12.00;98.20;;;;;;4997695;28;20484;-84
2023/10/27 17:06:55;;;;;;;1.60;1.10;;;11.80;98.20;;;;;;5970777;23;20583;-84
2023/10/27 17:13:32;;;;;;;;;;;;;;;;;;;;;
2023/10/27 17:16:40;;;;;;;;;;;;;;;;;;;;;
2023/10/27 17:28:00;;;;;;;1.60;1.10;;;11.70;98.20;;;;;;5527795;22;20483;-83
2023/10/27 17:31:11;;;;;;;1.60;1.10;;;11.60;98.20;;;;;;4984581;28;20512;-83
2023/10/27 17:34:05;;;;;;;1.60;1.10;;;11.60;98.20;;;;;;5040930;22;20492;-83
2023/10/27 17:37:03;;;;;;;1.60;1.10;;;11.50;98.20;;;;;;4994916;28;20472;-82
2023/10/27 17:40:38;;;;;;;;;;;;;;;;;;;;;
2023/10/27 17:46:37;;;;;;;;;;;;;;;;;;;;;
2023/10/27 18:08:47;;;;;;;1.60;1.10;;;11.20;98.20;;;;;;4863857;29;20513;-82
2023/10/27 18:11:24;;;;;;;1.60;1.10;;;11.20;98.20;;;;;;4899794;28;20476;-84
2023/10/27 18:27:42;;;;;;;1.60;1.10;;;11.00;98.20;;;;;;4937840;28;20546;-84
2023/10/27 18:53:59;;;;;;;1.60;1.20;;;10.90;98.20;;;;;;4911207;29;20504;-85
2023/10/27 18:57:19;;;;;;;1.60;1.10;;;10.80;98.20;;;;;;4893339;29;20509;-84
2023/10/27 19:00:33;;;;;;;1.67;1.30;;;10.80;98.20;;;;;;4839424;29;21077;-84
2023/10/27 19:12:54;;;;;;;1.70;1.30;;;10.70;98.20;;;;;;5007092;22;20453;-84
2023/10/27 19:15:51;;;;;;;1.60;1.10;;;10.70;98.20;;;;;;4989876;28;20472;-84
2023/10/27 19:40:46;;;;;;;1.60;1.10;;;10.60;98.20;;;;;;4937986;29;20497;-84
2023/10/27 19:43:41;;;;;;;1.60;1.10;;;10.50;98.20;;;;;;4919850;29;20477;-84
2023/10/27 19:46:49;;;;;;;1.60;1.20;;;10.50;98.20;;;;;;4931448;29;20469;-83
2023/10/27 19:56:34;;;;;;;1.60;1.10;;;10.40;98.20;;;;;;4815506;28;20545;-84
2023/10/27 20:05:21;;;;;;;1.70;1.30;;;10.30;98.20;;;;;;5544172;22;20569;-82
2023/10/27 20:22:07;;;;;;;1.63;1.17;;;10.20;98.20;;;;;;4952032;28;20478;-82
2023/10/27 20:25:04;;;;;;;1.60;1.10;;;10.20;98.20;;;;;;5030124;23;20501;-84
2023/10/27 20:31:22;;;;;;;1.60;1.10;;;10.10;98.20;;;;;;4950328;28;20663;-83
2023/10/27 20:37:58;;;;;;;1.60;1.20;;;10.10;98.20;;;;;;4910691;28;20473;-83
2023/10/27 21:11:23;;;;;;;1.63;1.30;;;10.00;98.20;;;;;;5008522;28;20474;-83
2023/10/27 21:14:55;;;;;;;;;;;;;;;;;;;;;
2023/10/27 21:30:06;;;;;;;1.60;1.20;;;10.10;98.20;;;;;;4947131;28;20513;-84
2023/10/27 22:19:51;;;;;;;1.60;1.10;;;10.10;98.20;;;;;;5587625;23;20477;-81
2023/10/27 22:30:15;;;;;;;1.60;1.10;;;10.10;98.20;;;;;;4912503;29;20489;-81
2023/10/27 22:33:21;;;;;;;1.60;1.10;;;10.10;98.20;;;;;;4861569;29;20961;-81
2023/10/27 22:40:11;;;;;;;1.60;1.20;;;10.00;98.20;;;;;;4963911;28;20481;-80
2023/10/27 22:50:17;;;;;;;1.60;1.10;;;10.00;98.20;;;;;;4841810;29;20962;-80
2023/10/27 22:59:47;;;;;;;1.60;1.20;;;10.00;98.20;;;;;;4796427;29;20500;-81
2023/10/27 23:15:51;;;;;;;1.63;1.20;;;10.00;98.20;;;;;;5108663;23;20535;-81
2023/10/27 23:22:17;;;;;;;1.60;1.20;;;10.00;98.20;;;;;;4887452;29;20479;-83
2023/10/27 23:31:12;;;;;;;1.60;1.10;;;10.10;98.20;;;;;;4839025;29;20501;-80
2023/10/27 23:34:16;;;;;;;1.60;1.13;;;10.10;98.20;;;;;;4874187;29;20493;-81
2023/10/27 23:43:33;;;;;;;1.60;1.10;;;10.30;98.20;;;;;;4960182;23;20488;-81
2023/10/27 23:46:14;;;;;;;1.70;1.23;;;10.30;98.20;;;;;;4995722;28;20828;-81
2023/10/27 23:52:12;;;;;;;1.60;1.10;;;10.30;98.20;;;;;;4948961;28;20515;-81
